sensor_id;sensor_type;location;lat;lon;timestamp;temperature;humidity
32217;DHT22;67098;51.140;4.088;2023-02-01T00:02:05;8.70;98.40
32217;DHT22;67098;51.140;4.088;2023-02-01T00:04:30;8.70;98.60
32217;DHT22;67098;51.140;4.088;2023-02-01T00:06:56;8.70;98.50
32217;DHT22;67098;51.140;4.088;2023-02-01T00:09:23;8.70;98.60
32217;DHT22;67098;51.140;4.088;2023-02-01T00:11:48;8.60;98.70
32217;DHT22;67098;51.140;4.088;2023-02-01T00:14:14;8.60;98.50
32217;DHT22;67098;51.140;4.088;2023-02-01T00:16:42;8.50;98.20
32217;DHT22;67098;51.140;4.088;2023-02-01T00:19:12;8.50;98.00
32217;DHT22;67098;51.140;4.088;2023-02-01T00:21:38;8.50;97.90
32217;DHT22;67098;51.140;4.088;2023-02-01T00:24:04;8.40;97.80
32217;DHT22;67098;51.140;4.088;2023-02-01T00:26:44;8.40;97.70
32217;DHT22;67098;51.140;4.088;2023-02-01T00:29:12;8.40;97.70
32217;DHT22;67098;51.140;4.088;2023-02-01T00:31:38;8.30;97.80
32217;DHT22;67098;51.140;4.088;2023-02-01T00:34:04;8.30;97.60
32217;DHT22;67098;51.140;4.088;2023-02-01T00:36:30;8.20;97.70
32217;DHT22;67098;51.140;4.088;2023-02-01T00:38:56;8.30;97.40
32217;DHT22;67098;51.140;4.088;2023-02-01T00:41:22;8.30;97.30
32217;DHT22;67098;51.140;4.088;2023-02-01T00:43:49;8.30;97.00
32217;DHT22;67098;51.140;4.088;2023-02-01T00:46:16;8.20;97.20
32217;DHT22;67098;51.140;4.088;2023-02-01T00:48:42;8.20;97.10
32217;DHT22;67098;51.140;4.088;2023-02-01T00:51:14;8.20;97.00
32217;DHT22;67098;51.140;4.088;2023-02-01T00:53:40;8.20;96.70
32217;DHT22;67098;51.140;4.088;2023-02-01T00:56:06;8.20;96.50
32217;DHT22;67098;51.140;4.088;2023-02-01T00:58:32;8.30;96.20
32217;DHT22;67098;51.140;4.088;2023-02-01T01:01:02;8.20;96.10
32217;DHT22;67098;51.140;4.088;2023-02-01T01:03:29;8.10;96.60
32217;DHT22;67098;51.140;4.088;2023-02-01T01:05:59;8.00;96.60
32217;DHT22;67098;51.140;4.088;2023-02-01T01:08:26;8.00;96.50
32217;DHT22;67098;51.140;4.088;2023-02-01T01:10:52;7.90;96.60
32217;DHT22;67098;51.140;4.088;2023-02-01T01:13:18;7.90;96.60
32217;DHT22;67098;51.140;4.088;2023-02-01T01:15:43;7.90;96.50
32217;DHT22;67098;51.140;4.088;2023-02-01T01:18:09;7.90;96.60
32217;DHT22;67098;51.140;4.088;2023-02-01T01:20:37;7.90;96.40
32217;DHT22;67098;51.140;4.088;2023-02-01T01:23:04;8.00;96.20
32217;DHT22;67098;51.140;4.088;2023-02-01T01:25:29;7.90;96.20
32217;DHT22;67098;51.140;4.088;2023-02-01T01:27:55;7.90;96.30
32217;DHT22;67098;51.140;4.088;2023-02-01T01:30:21;7.80;96.30
32217;DHT22;67098;51.140;4.088;2023-02-01T01:32:47;7.90;96.10
32217;DHT22;67098;51.140;4.088;2023-02-01T01:35:13;7.90;96.00
32217;DHT22;67098;51.140;4.088;2023-02-01T01:37:38;7.90;96.10
32217;DHT22;67098;51.140;4.088;2023-02-01T01:40:06;7.80;95.80
32217;DHT22;67098;51.140;4.088;2023-02-01T01:42:43;7.70;96.20
32217;DHT22;67098;51.140;4.088;2023-02-01T01:45:29;7.80;95.90
32217;DHT22;67098;51.140;4.088;2023-02-01T01:47:59;7.80;95.90
32217;DHT22;67098;51.140;4.088;2023-02-01T01:50:42;7.70;96.10
32217;DHT22;67098;51.140;4.088;2023-02-01T01:53:12;7.70;96.10
32217;DHT22;67098;51.140;4.088;2023-02-01T01:55:43;7.80;95.90
32217;DHT22;67098;51.140;4.088;2023-02-01T01:58:13;7.80;95.80
32217;DHT22;67098;51.140;4.088;2023-02-01T02:00:41;7.80;95.80
32217;DHT22;67098;51.140;4.088;2023-02-01T02:03:27;7.70;95.80
32217;DHT22;67098;51.140;4.088;2023-02-01T02:05:55;7.60;95.90
32217;DHT22;67098;51.140;4.088;2023-02-01T02:08:24;7.50;95.90
32217;DHT22;67098;51.140;4.088;2023-02-01T02:10:51;7.60;95.60
32217;DHT22;67098;51.140;4.088;2023-02-01T02:13:31;7.70;95.60
32217;DHT22;67098;51.140;4.088;2023-02-01T02:30:31;7.60;95.50
32217;DHT22;67098;51.140;4.088;2023-02-01T02:33:37;7.60;95.60
32217;DHT22;67098;51.140;4.088;2023-02-01T02:36:48;7.50;95.50
32217;DHT22;67098;51.140;4.088;2023-02-01T02:42:34;7.40;95.70
32217;DHT22;67098;51.140;4.088;2023-02-01T02:45:37;7.40;95.60
32217;DHT22;67098;51.140;4.088;2023-02-01T02:51:29;7.60;95.40
32217;DHT22;67098;51.140;4.088;2023-02-01T02:54:20;7.50;95.50
32217;DHT22;67098;51.140;4.088;2023-02-01T02:57:08;7.50;95.60
32217;DHT22;67098;51.140;4.088;2023-02-01T02:59:53;7.40;95.80
32217;DHT22;67098;51.140;4.088;2023-02-01T03:02:40;7.40;95.80
32217;DHT22;67098;51.140;4.088;2023-02-01T03:05:25;7.50;95.60
32217;DHT22;67098;51.140;4.088;2023-02-01T03:08:04;7.50;95.50
32217;DHT22;67098;51.140;4.088;2023-02-01T03:11:00;7.50;95.60
32217;DHT22;67098;51.140;4.088;2023-02-01T03:13:33;7.50;95.50
32217;DHT22;67098;51.140;4.088;2023-02-01T03:18:50;7.60;95.50
32217;DHT22;67098;51.140;4.088;2023-02-01T03:21:25;7.40;96.00
32217;DHT22;67098;51.140;4.088;2023-02-01T03:23:53;7.30;96.20
32217;DHT22;67098;51.140;4.088;2023-02-01T03:26:22;7.40;96.10
32217;DHT22;67098;51.140;4.088;2023-02-01T03:28:57;7.40;96.00
32217;DHT22;67098;51.140;4.088;2023-02-01T03:31:25;7.50;95.90
32217;DHT22;67098;51.140;4.088;2023-02-01T03:33:52;7.60;95.70
32217;DHT22;67098;51.140;4.088;2023-02-01T03:36:31;7.60;95.60
32217;DHT22;67098;51.140;4.088;2023-02-01T03:41:33;7.50;95.70
32217;DHT22;67098;51.140;4.088;2023-02-01T03:49:40;7.50;95.70
32217;DHT22;67098;51.140;4.088;2023-02-01T03:52:16;7.50;95.70
32217;DHT22;67098;51.140;4.088;2023-02-01T03:54:45;7.40;95.70
32217;DHT22;67098;51.140;4.088;2023-02-01T03:57:13;7.40;95.70
32217;DHT22;67098;51.140;4.088;2023-02-01T03:59:43;7.40;95.70
32217;DHT22;67098;51.140;4.088;2023-02-01T04:02:09;7.40;95.60
32217;DHT22;67098;51.140;4.088;2023-02-01T04:04:36;7.40;95.70
32217;DHT22;67098;51.140;4.088;2023-02-01T04:07:02;7.40;95.70
32217;DHT22;67098;51.140;4.088;2023-02-01T04:09:28;7.50;95.60
32217;DHT22;67098;51.140;4.088;2023-02-01T04:11:53;7.40;96.00
32217;DHT22;67098;51.140;4.088;2023-02-01T04:14:19;7.40;95.80
32217;DHT22;67098;51.140;4.088;2023-02-01T04:16:45;7.40;95.90
32217;DHT22;67098;51.140;4.088;2023-02-01T04:19:11;7.40;95.90
32217;DHT22;67098;51.140;4.088;2023-02-01T04:21:37;7.40;95.90
32217;DHT22;67098;51.140;4.088;2023-02-01T04:24:02;7.40;95.90
32217;DHT22;67098;51.140;4.088;2023-02-01T04:26:28;7.30;96.10
32217;DHT22;67098;51.140;4.088;2023-02-01T04:28:54;7.30;96.10
32217;DHT22;67098;51.140;4.088;2023-02-01T04:31:19;7.30;96.20
32217;DHT22;67098;51.140;4.088;2023-02-01T04:33:52;7.30;96.20
32217;DHT22;67098;51.140;4.088;2023-02-01T04:36:18;7.20;96.20
32217;DHT22;67098;51.140;4.088;2023-02-01T04:38:51;7.30;96.10
32217;DHT22;67098;51.140;4.088;2023-02-01T04:41:17;7.30;96.10
32217;DHT22;67098;51.140;4.088;2023-02-01T04:43:46;7.20;96.30
32217;DHT22;67098;51.140;4.088;2023-02-01T04:46:11;7.20;96.40
32217;DHT22;67098;51.140;4.088;2023-02-01T04:48:37;7.20;96.40
32217;DHT22;67098;51.140;4.088;2023-02-01T04:51:03;7.20;96.50
32217;DHT22;67098;51.140;4.088;2023-02-01T04:53:28;7.10;96.50
32217;DHT22;67098;51.140;4.088;2023-02-01T04:55:55;7.10;96.40
32217;DHT22;67098;51.140;4.088;2023-02-01T04:58:21;7.20;96.50
32217;DHT22;67098;51.140;4.088;2023-02-01T05:00:46;7.20;96.50
32217;DHT22;67098;51.140;4.088;2023-02-01T05:03:12;7.10;96.70
32217;DHT22;67098;51.140;4.088;2023-02-01T05:05:38;7.10;96.50
32217;DHT22;67098;51.140;4.088;2023-02-01T05:08:04;7.20;96.50
32217;DHT22;67098;51.140;4.088;2023-02-01T05:10:29;7.10;96.60
32217;DHT22;67098;51.140;4.088;2023-02-01T05:12:55;7.00;96.90
32217;DHT22;67098;51.140;4.088;2023-02-01T05:15:39;7.00;96.90
32217;DHT22;67098;51.140;4.088;2023-02-01T05:18:05;7.00;96.80
32217;DHT22;67098;51.140;4.088;2023-02-01T05:20:31;7.10;96.60
32217;DHT22;67098;51.140;4.088;2023-02-01T05:22:56;7.10;96.80
32217;DHT22;67098;51.140;4.088;2023-02-01T05:25:22;7.00;97.00
32217;DHT22;67098;51.140;4.088;2023-02-01T05:27:48;7.00;97.10
32217;DHT22;67098;51.140;4.088;2023-02-01T05:30:14;6.90;97.20
32217;DHT22;67098;51.140;4.088;2023-02-01T05:32:40;6.90;97.30
32217;DHT22;67098;51.140;4.088;2023-02-01T05:35:06;6.90;97.30
32217;DHT22;67098;51.140;4.088;2023-02-01T05:37:31;6.90;97.00
32217;DHT22;67098;51.140;4.088;2023-02-01T05:39:57;7.00;97.10
32217;DHT22;67098;51.140;4.088;2023-02-01T05:42:23;7.00;96.80
32217;DHT22;67098;51.140;4.088;2023-02-01T05:44:48;7.00;96.90
32217;DHT22;67098;51.140;4.088;2023-02-01T05:47:14;6.80;97.10
32217;DHT22;67098;51.140;4.088;2023-02-01T05:49:40;6.80;97.20
32217;DHT22;67098;51.140;4.088;2023-02-01T05:52:05;6.90;97.10
32217;DHT22;67098;51.140;4.088;2023-02-01T05:54:31;6.80;97.00
32217;DHT22;67098;51.140;4.088;2023-02-01T05:56:57;6.80;97.10
32217;DHT22;67098;51.140;4.088;2023-02-01T05:59:22;6.80;97.20
32217;DHT22;67098;51.140;4.088;2023-02-01T06:01:48;6.70;97.20
32217;DHT22;67098;51.140;4.088;2023-02-01T06:04:14;6.80;97.40
32217;DHT22;67098;51.140;4.088;2023-02-01T06:06:40;6.80;97.30
32217;DHT22;67098;51.140;4.088;2023-02-01T06:09:05;6.70;97.30
32217;DHT22;67098;51.140;4.088;2023-02-01T06:11:31;6.80;97.20
32217;DHT22;67098;51.140;4.088;2023-02-01T06:13:57;6.80;97.30
32217;DHT22;67098;51.140;4.088;2023-02-01T06:16:23;6.80;97.40
32217;DHT22;67098;51.140;4.088;2023-02-01T06:18:49;6.70;97.40
32217;DHT22;67098;51.140;4.088;2023-02-01T06:21:14;6.70;97.60
32217;DHT22;67098;51.140;4.088;2023-02-01T06:23:50;6.80;97.40
32217;DHT22;67098;51.140;4.088;2023-02-01T06:26:16;6.80;97.40
32217;DHT22;67098;51.140;4.088;2023-02-01T06:28:43;6.90;97.00
32217;DHT22;67098;51.140;4.088;2023-02-01T06:31:09;7.00;97.10
32217;DHT22;67098;51.140;4.088;2023-02-01T06:33:36;6.90;97.30
32217;DHT22;67098;51.140;4.088;2023-02-01T06:36:04;6.90;97.10
32217;DHT22;67098;51.140;4.088;2023-02-01T06:38:31;6.90;97.20
32217;DHT22;67098;51.140;4.088;2023-02-01T06:40:57;6.80;97.40
32217;DHT22;67098;51.140;4.088;2023-02-01T06:43:24;6.70;97.70
32217;DHT22;67098;51.140;4.088;2023-02-01T06:45:51;6.70;97.90
32217;DHT22;67098;51.140;4.088;2023-02-01T06:48:17;6.70;97.80
32217;DHT22;67098;51.140;4.088;2023-02-01T06:50:43;6.80;97.50
32217;DHT22;67098;51.140;4.088;2023-02-01T06:53:09;6.80;97.60
32217;DHT22;67098;51.140;4.088;2023-02-01T06:55:35;6.80;97.60
32217;DHT22;67098;51.140;4.088;2023-02-01T06:58:01;6.70;97.60
32217;DHT22;67098;51.140;4.088;2023-02-01T07:00:28;6.90;97.40
32217;DHT22;67098;51.140;4.088;2023-02-01T07:02:54;6.90;97.40
32217;DHT22;67098;51.140;4.088;2023-02-01T07:05:21;6.90;97.30
32217;DHT22;67098;51.140;4.088;2023-02-01T07:07:46;6.90;97.40
32217;DHT22;67098;51.140;4.088;2023-02-01T07:10:12;6.80;97.50
32217;DHT22;67098;51.140;4.088;2023-02-01T07:12:37;6.90;97.30
32217;DHT22;67098;51.140;4.088;2023-02-01T07:15:04;6.90;97.30
32217;DHT22;67098;51.140;4.088;2023-02-01T07:17:30;6.90;97.40
32217;DHT22;67098;51.140;4.088;2023-02-01T07:19:56;6.90;97.50
32217;DHT22;67098;51.140;4.088;2023-02-01T07:22:25;6.90;97.50
32217;DHT22;67098;51.140;4.088;2023-02-01T07:24:50;6.90;97.70
32217;DHT22;67098;51.140;4.088;2023-02-01T07:27:16;7.00;97.60
32217;DHT22;67098;51.140;4.088;2023-02-01T07:29:42;7.00;97.60
32217;DHT22;67098;51.140;4.088;2023-02-01T07:32:07;7.00;97.60
32217;DHT22;67098;51.140;4.088;2023-02-01T07:34:33;7.00;97.70
32217;DHT22;67098;51.140;4.088;2023-02-01T07:36:59;7.00;97.50
32217;DHT22;67098;51.140;4.088;2023-02-01T07:39:24;7.00;97.50
32217;DHT22;67098;51.140;4.088;2023-02-01T07:41:53;7.00;97.40
32217;DHT22;67098;51.140;4.088;2023-02-01T07:44:19;7.10;97.30
32217;DHT22;67098;51.140;4.088;2023-02-01T07:46:48;7.10;97.30
32217;DHT22;67098;51.140;4.088;2023-02-01T07:49:14;7.10;97.30
32217;DHT22;67098;51.140;4.088;2023-02-01T07:51:39;7.20;97.40
32217;DHT22;67098;51.140;4.088;2023-02-01T07:54:05;7.20;97.30
32217;DHT22;67098;51.140;4.088;2023-02-01T07:56:31;7.30;97.20
32217;DHT22;67098;51.140;4.088;2023-02-01T07:58:56;7.20;97.50
32217;DHT22;67098;51.140;4.088;2023-02-01T08:01:26;7.20;97.60
32217;DHT22;67098;51.140;4.088;2023-02-01T08:03:57;7.20;97.60
32217;DHT22;67098;51.140;4.088;2023-02-01T08:06:25;7.20;97.70
32217;DHT22;67098;51.140;4.088;2023-02-01T08:08:52;7.30;97.50
32217;DHT22;67098;51.140;4.088;2023-02-01T08:11:19;7.40;97.60
32217;DHT22;67098;51.140;4.088;2023-02-01T08:13:45;7.40;97.40
32217;DHT22;67098;51.140;4.088;2023-02-01T08:16:12;7.50;97.20
32217;DHT22;67098;51.140;4.088;2023-02-01T08:18:39;7.50;97.30
32217;DHT22;67098;51.140;4.088;2023-02-01T08:21:06;7.50;97.20
32217;DHT22;67098;51.140;4.088;2023-02-01T08:23:33;7.50;97.30
32217;DHT22;67098;51.140;4.088;2023-02-01T08:26:12;7.60;97.10
32217;DHT22;67098;51.140;4.088;2023-02-01T08:28:39;7.60;97.20
32217;DHT22;67098;51.140;4.088;2023-02-01T08:31:08;7.60;97.20
32217;DHT22;67098;51.140;4.088;2023-02-01T08:33:34;7.60;97.20
32217;DHT22;67098;51.140;4.088;2023-02-01T08:36:02;7.60;97.30
32217;DHT22;67098;51.140;4.088;2023-02-01T08:38:28;7.60;97.50
32217;DHT22;67098;51.140;4.088;2023-02-01T08:40:54;7.60;97.30
32217;DHT22;67098;51.140;4.088;2023-02-01T08:43:19;7.60;97.40
32217;DHT22;67098;51.140;4.088;2023-02-01T08:45:45;7.70;97.40
32217;DHT22;67098;51.140;4.088;2023-02-01T08:48:11;7.80;97.20
32217;DHT22;67098;51.140;4.088;2023-02-01T08:50:37;7.90;97.00
32217;DHT22;67098;51.140;4.088;2023-02-01T08:53:02;7.90;97.20
32217;DHT22;67098;51.140;4.088;2023-02-01T08:55:28;8.00;97.00
32217;DHT22;67098;51.140;4.088;2023-02-01T08:57:54;8.00;97.00
32217;DHT22;67098;51.140;4.088;2023-02-01T09:00:19;8.20;96.70
32217;DHT22;67098;51.140;4.088;2023-02-01T09:02:45;8.30;96.60
32217;DHT22;67098;51.140;4.088;2023-02-01T09:05:11;8.30;96.40
32217;DHT22;67098;51.140;4.088;2023-02-01T09:07:37;8.40;96.20
32217;DHT22;67098;51.140;4.088;2023-02-01T09:10:04;8.50;96.10
32217;DHT22;67098;51.140;4.088;2023-02-01T09:12:32;8.50;96.10
32217;DHT22;67098;51.140;4.088;2023-02-01T09:14:58;8.60;95.90
32217;DHT22;67098;51.140;4.088;2023-02-01T09:17:26;8.60;96.00
32217;DHT22;67098;51.140;4.088;2023-02-01T09:19:52;8.50;96.10
32217;DHT22;67098;51.140;4.088;2023-02-01T09:22:17;8.60;96.10
32217;DHT22;67098;51.140;4.088;2023-02-01T09:24:43;8.70;95.90
32217;DHT22;67098;51.140;4.088;2023-02-01T09:27:09;8.70;95.80
32217;DHT22;67098;51.140;4.088;2023-02-01T09:29:35;8.70;96.10
32217;DHT22;67098;51.140;4.088;2023-02-01T09:32:01;8.70;96.00
32217;DHT22;67098;51.140;4.088;2023-02-01T09:34:26;8.70;95.90
32217;DHT22;67098;51.140;4.088;2023-02-01T09:36:52;8.80;95.70
32217;DHT22;67098;51.140;4.088;2023-02-01T09:39:19;8.80;95.70
32217;DHT22;67098;51.140;4.088;2023-02-01T09:41:58;8.80;95.80
32217;DHT22;67098;51.140;4.088;2023-02-01T09:46:57;8.80;95.70
32217;DHT22;67098;51.140;4.088;2023-02-01T09:49:33;8.90;95.60
32217;DHT22;67098;51.140;4.088;2023-02-01T09:52:02;8.90;95.60
32217;DHT22;67098;51.140;4.088;2023-02-01T09:54:41;8.90;95.80
32217;DHT22;67098;51.140;4.088;2023-02-01T09:58:07;8.90;95.40
32217;DHT22;67098;51.140;4.088;2023-02-01T10:00:20;9.00;95.50
32217;DHT22;67098;51.140;4.088;2023-02-01T10:02:49;9.20;95.30
32217;DHT22;67098;51.140;4.088;2023-02-01T10:05:24;9.10;95.70
32217;DHT22;67098;51.140;4.088;2023-02-01T10:08:17;9.10;95.40
32217;DHT22;67098;51.140;4.088;2023-02-01T10:10:48;9.10;95.50
32217;DHT22;67098;51.140;4.088;2023-02-01T10:18:37;9.20;95.30
32217;DHT22;67098;51.140;4.088;2023-02-01T10:21:25;9.10;95.10
32217;DHT22;67098;51.140;4.088;2023-02-01T10:26:37;9.20;94.70
32217;DHT22;67098;51.140;4.088;2023-02-01T10:29:15;9.30;94.50
32217;DHT22;67098;51.140;4.088;2023-02-01T10:31:42;9.30;94.50
32217;DHT22;67098;51.140;4.088;2023-02-01T10:34:21;9.40;94.30
32217;DHT22;67098;51.140;4.088;2023-02-01T10:37:23;9.50;94.00
32217;DHT22;67098;51.140;4.088;2023-02-01T10:39:53;9.40;94.20
32217;DHT22;67098;51.140;4.088;2023-02-01T10:42:21;9.20;94.40
32217;DHT22;67098;51.140;4.088;2023-02-01T10:44:48;9.10;94.40
32217;DHT22;67098;51.140;4.088;2023-02-01T10:47:15;9.20;94.70
32217;DHT22;67098;51.140;4.088;2023-02-01T10:49:58;9.30;94.70
32217;DHT22;67098;51.140;4.088;2023-02-01T10:52:45;9.40;94.40
32217;DHT22;67098;51.140;4.088;2023-02-01T10:58:13;9.80;93.40
32217;DHT22;67098;51.140;4.088;2023-02-01T11:03:30;10.30;92.80
32217;DHT22;67098;51.140;4.088;2023-02-01T11:05:57;10.40;92.20
32217;DHT22;67098;51.140;4.088;2023-02-01T11:08:23;10.60;91.80
32217;DHT22;67098;51.140;4.088;2023-02-01T11:10:58;10.70;91.50
32217;DHT22;67098;51.140;4.088;2023-02-01T11:13:31;10.60;91.30
32217;DHT22;67098;51.140;4.088;2023-02-01T11:16:03;10.60;91.40
32217;DHT22;67098;51.140;4.088;2023-02-01T11:18:33;10.50;91.10
32217;DHT22;67098;51.140;4.088;2023-02-01T11:21:01;10.50;91.30
32217;DHT22;67098;51.140;4.088;2023-02-01T11:23:28;10.60;91.00
32217;DHT22;67098;51.140;4.088;2023-02-01T11:25:59;10.60;91.10
32217;DHT22;67098;51.140;4.088;2023-02-01T11:28:31;10.80;91.00
32217;DHT22;67098;51.140;4.088;2023-02-01T11:31:01;10.90;90.70
32217;DHT22;67098;51.140;4.088;2023-02-01T11:33:33;11.10;90.20
32217;DHT22;67098;51.140;4.088;2023-02-01T11:36:07;11.30;90.10
32217;DHT22;67098;51.140;4.088;2023-02-01T11:38:34;11.40;90.10
32217;DHT22;67098;51.140;4.088;2023-02-01T11:41:16;11.50;88.90
32217;DHT22;67098;51.140;4.088;2023-02-01T11:44:15;11.60;87.70
32217;DHT22;67098;51.140;4.088;2023-02-01T11:46:43;11.60;87.70
32217;DHT22;67098;51.140;4.088;2023-02-01T11:49:25;11.40;88.30
32217;DHT22;67098;51.140;4.088;2023-02-01T11:57:51;11.10;87.30
32217;DHT22;67098;51.140;4.088;2023-02-01T12:14:04;12.00;85.30
32217;DHT22;67098;51.140;4.088;2023-02-01T12:17:07;12.10;85.10
32217;DHT22;67098;51.140;4.088;2023-02-01T12:19:54;12.40;83.60
32217;DHT22;67098;51.140;4.088;2023-02-01T12:31:23;12.20;83.60
32217;DHT22;67098;51.140;4.088;2023-02-01T12:39:43;12.50;82.60
32217;DHT22;67098;51.140;4.088;2023-02-01T12:44:54;12.40;81.60
32217;DHT22;67098;51.140;4.088;2023-02-01T12:47:41;12.30;82.70
32217;DHT22;67098;51.140;4.088;2023-02-01T12:53:28;12.30;83.00
32217;DHT22;67098;51.140;4.088;2023-02-01T12:56:00;12.30;82.90
32217;DHT22;67098;51.140;4.088;2023-02-01T12:58:53;12.20;83.50
32217;DHT22;67098;51.140;4.088;2023-02-01T13:01:38;12.40;83.70
32217;DHT22;67098;51.140;4.088;2023-02-01T13:04:34;12.40;82.90
32217;DHT22;67098;51.140;4.088;2023-02-01T13:07:21;12.50;81.90
32217;DHT22;67098;51.140;4.088;2023-02-01T13:10:02;12.40;82.30
32217;DHT22;67098;51.140;4.088;2023-02-01T13:15:15;12.50;82.30
32217;DHT22;67098;51.140;4.088;2023-02-01T13:17:42;12.40;83.40
32217;DHT22;67098;51.140;4.088;2023-02-01T13:20:37;12.10;84.00
32217;DHT22;67098;51.140;4.088;2023-02-01T13:23:28;12.00;83.90
32217;DHT22;67098;51.140;4.088;2023-02-01T13:25:55;12.00;84.20
32217;DHT22;67098;51.140;4.088;2023-02-01T13:28:51;12.10;83.70
32217;DHT22;67098;51.140;4.088;2023-02-01T13:40:10;11.90;84.90
32217;DHT22;67098;51.140;4.088;2023-02-01T13:42:50;12.10;84.10
32217;DHT22;67098;51.140;4.088;2023-02-01T13:45:23;12.10;84.60
32217;DHT22;67098;51.140;4.088;2023-02-01T13:47:51;12.20;84.00
32217;DHT22;67098;51.140;4.088;2023-02-01T13:52:56;12.00;84.40
32217;DHT22;67098;51.140;4.088;2023-02-01T13:55:29;12.00;84.70
32217;DHT22;67098;51.140;4.088;2023-02-01T14:00:40;11.60;85.40
32217;DHT22;67098;51.140;4.088;2023-02-01T14:21:25;11.70;85.90
32217;DHT22;67098;51.140;4.088;2023-02-01T14:23:58;11.70;86.30
32217;DHT22;67098;51.140;4.088;2023-02-01T14:26:51;11.80;85.60
32217;DHT22;67098;51.140;4.088;2023-02-01T14:29:42;11.80;85.80
32217;DHT22;67098;51.140;4.088;2023-02-01T14:32:18;11.90;85.50
32217;DHT22;67098;51.140;4.088;2023-02-01T14:44:48;11.30;87.60
32217;DHT22;67098;51.140;4.088;2023-02-01T14:49:59;11.30;88.20
32217;DHT22;67098;51.140;4.088;2023-02-01T14:52:34;11.40;87.40
32217;DHT22;67098;51.140;4.088;2023-02-01T14:55:08;11.20;87.70
32217;DHT22;67098;51.140;4.088;2023-02-01T14:57:39;11.10;88.20
32217;DHT22;67098;51.140;4.088;2023-02-01T15:00:27;11.10;88.60
32217;DHT22;67098;51.140;4.088;2023-02-01T15:02:56;10.90;89.30
32217;DHT22;67098;51.140;4.088;2023-02-01T15:05:37;11.00;89.70
32217;DHT22;67098;51.140;4.088;2023-02-01T15:08:12;11.00;89.20
32217;DHT22;67098;51.140;4.088;2023-02-01T15:10:45;11.00;89.70
32217;DHT22;67098;51.140;4.088;2023-02-01T15:13:25;11.00;89.80
32217;DHT22;67098;51.140;4.088;2023-02-01T15:16:09;11.10;89.40
32217;DHT22;67098;51.140;4.088;2023-02-01T15:18:35;11.10;89.40
32217;DHT22;67098;51.140;4.088;2023-02-01T15:21:03;10.90;89.90
32217;DHT22;67098;51.140;4.088;2023-02-01T15:23:29;11.00;90.10
32217;DHT22;67098;51.140;4.088;2023-02-01T15:25:55;10.90;90.20
32217;DHT22;67098;51.140;4.088;2023-02-01T15:28:21;11.00;90.10
32217;DHT22;67098;51.140;4.088;2023-02-01T15:31:02;11.00;90.30
32217;DHT22;67098;51.140;4.088;2023-02-01T15:33:29;10.90;90.30
32217;DHT22;67098;51.140;4.088;2023-02-01T15:36:11;10.90;90.50
32217;DHT22;67098;51.140;4.088;2023-02-01T15:38:42;10.90;90.50
32217;DHT22;67098;51.140;4.088;2023-02-01T15:46:39;10.70;91.00
32217;DHT22;67098;51.140;4.088;2023-02-01T15:49:13;10.80;90.90
32217;DHT22;67098;51.140;4.088;2023-02-01T15:51:44;10.80;90.80
32217;DHT22;67098;51.140;4.088;2023-02-01T15:54:28;10.70;90.90
32217;DHT22;67098;51.140;4.088;2023-02-01T15:56:58;10.80;90.90
32217;DHT22;67098;51.140;4.088;2023-02-01T15:59:41;10.80;91.10
32217;DHT22;67098;51.140;4.088;2023-02-01T16:02:25;10.80;90.90
32217;DHT22;67098;51.140;4.088;2023-02-01T16:04:51;10.90;90.80
32217;DHT22;67098;51.140;4.088;2023-02-01T16:07:27;10.80;91.20
32217;DHT22;67098;51.140;4.088;2023-02-01T16:09:57;10.90;90.90
32217;DHT22;67098;51.140;4.088;2023-02-01T16:12:33;10.80;91.10
32217;DHT22;67098;51.140;4.088;2023-02-01T16:15:04;10.80;91.00
32217;DHT22;67098;51.140;4.088;2023-02-01T16:17:30;10.70;91.10
32217;DHT22;67098;51.140;4.088;2023-02-01T16:19:56;10.70;91.30
32217;DHT22;67098;51.140;4.088;2023-02-01T16:22:23;10.60;91.30
32217;DHT22;67098;51.140;4.088;2023-02-01T16:24:49;10.60;91.40
32217;DHT22;67098;51.140;4.088;2023-02-01T16:27:14;10.60;91.40
32217;DHT22;67098;51.140;4.088;2023-02-01T16:29:40;10.70;91.30
32217;DHT22;67098;51.140;4.088;2023-02-01T16:32:10;10.60;91.40
32217;DHT22;67098;51.140;4.088;2023-02-01T16:34:39;10.60;91.40
32217;DHT22;67098;51.140;4.088;2023-02-01T16:37:05;10.60;91.40
32217;DHT22;67098;51.140;4.088;2023-02-01T16:39:34;10.50;91.60
32217;DHT22;67098;51.140;4.088;2023-02-01T16:42:00;10.50;91.70
32217;DHT22;67098;51.140;4.088;2023-02-01T16:44:30;10.50;91.60
32217;DHT22;67098;51.140;4.088;2023-02-01T16:46:55;10.60;91.50
32217;DHT22;67098;51.140;4.088;2023-02-01T16:49:24;10.70;91.40
32217;DHT22;67098;51.140;4.088;2023-02-01T16:51:51;10.70;91.30
32217;DHT22;67098;51.140;4.088;2023-02-01T16:54:20;10.60;91.50
32217;DHT22;67098;51.140;4.088;2023-02-01T16:56:46;10.50;91.60
32217;DHT22;67098;51.140;4.088;2023-02-01T16:59:12;10.50;91.80
32217;DHT22;67098;51.140;4.088;2023-02-01T17:01:39;10.50;91.60
32217;DHT22;67098;51.140;4.088;2023-02-01T17:04:08;10.30;92.00
32217;DHT22;67098;51.140;4.088;2023-02-01T17:06:35;10.30;92.10
32217;DHT22;67098;51.140;4.088;2023-02-01T17:09:03;10.50;91.80
32217;DHT22;67098;51.140;4.088;2023-02-01T17:11:29;10.50;91.80
32217;DHT22;67098;51.140;4.088;2023-02-01T17:16:28;10.60;91.60
32217;DHT22;67098;51.140;4.088;2023-02-01T17:18:59;10.60;91.70
32217;DHT22;67098;51.140;4.088;2023-02-01T17:21:29;10.60;91.90
32217;DHT22;67098;51.140;4.088;2023-02-01T17:23:56;10.50;92.00
32217;DHT22;67098;51.140;4.088;2023-02-01T17:26:24;10.50;92.10
32217;DHT22;67098;51.140;4.088;2023-02-01T17:28:50;10.60;92.10
32217;DHT22;67098;51.140;4.088;2023-02-01T17:31:16;10.60;92.10
32217;DHT22;67098;51.140;4.088;2023-02-01T17:33:42;10.60;92.20
32217;DHT22;67098;51.140;4.088;2023-02-01T17:36:14;10.60;92.30
32217;DHT22;67098;51.140;4.088;2023-02-01T17:38:40;10.60;92.30
32217;DHT22;67098;51.140;4.088;2023-02-01T17:41:05;10.60;92.40
32217;DHT22;67098;51.140;4.088;2023-02-01T17:43:31;10.60;92.50
32217;DHT22;67098;51.140;4.088;2023-02-01T17:48:37;10.60;92.70
32217;DHT22;67098;51.140;4.088;2023-02-01T17:51:03;10.60;92.70
32217;DHT22;67098;51.140;4.088;2023-02-01T17:53:30;10.60;92.70
32217;DHT22;67098;51.140;4.088;2023-02-01T17:55:58;10.60;92.60
32217;DHT22;67098;51.140;4.088;2023-02-01T17:58:24;10.70;92.80
32217;DHT22;67098;51.140;4.088;2023-02-01T18:00:51;10.70;92.80
32217;DHT22;67098;51.140;4.088;2023-02-01T18:03:25;10.70;92.70
32217;DHT22;67098;51.140;4.088;2023-02-01T18:05:53;10.60;92.90
32217;DHT22;67098;51.140;4.088;2023-02-01T18:08:23;10.60;93.00
32217;DHT22;67098;51.140;4.088;2023-02-01T18:10:58;10.60;93.20
32217;DHT22;67098;51.140;4.088;2023-02-01T18:13:27;10.60;93.00
32217;DHT22;67098;51.140;4.088;2023-02-01T18:15:53;10.30;93.60
32217;DHT22;67098;51.140;4.088;2023-02-01T18:18:20;10.30;93.60
32217;DHT22;67098;51.140;4.088;2023-02-01T18:20:47;10.50;93.40
32217;DHT22;67098;51.140;4.088;2023-02-01T18:23:21;10.50;93.30
32217;DHT22;67098;51.140;4.088;2023-02-01T18:25:48;10.50;93.30
32217;DHT22;67098;51.140;4.088;2023-02-01T18:28:14;10.50;93.40